createdAt,value
2022-10-11T00:02:19.316Z,11.60
2022-10-11T00:04:46.495Z,13.63
2022-10-11T00:07:13.491Z,10.43
2022-10-11T00:09:40.558Z,10.00
2022-10-11T00:12:07.556Z,13.40
2022-10-11T00:14:34.681Z,8.25
2022-10-11T00:17:01.696Z,13.27
2022-10-11T00:19:28.768Z,12.98
2022-10-11T00:21:55.790Z,11.65
2022-10-11T00:24:23.411Z,11.82
2022-10-11T00:26:51.036Z,13.55
2022-10-11T00:29:18.493Z,15.75
2022-10-11T00:31:46.130Z,9.82
2022-10-11T00:34:13.478Z,12.40
2022-10-11T00:36:41.826Z,13.10
2022-10-11T00:39:09.546Z,11.63
2022-10-11T00:41:37.535Z,11.43
2022-10-11T00:44:13.850Z,10.75
2022-10-11T00:46:44.795Z,13.32
2022-10-11T00:49:18.428Z,9.80
2022-10-11T00:52:11.752Z,10.55
2022-10-11T00:54:43.054Z,12.82
2022-10-11T00:57:14.648Z,13.93
2022-10-11T00:59:45.356Z,9.27
2022-10-11T01:02:13.472Z,9.05
2022-10-11T01:04:41.340Z,9.43
2022-10-11T01:07:10.080Z,10.48
2022-10-11T01:09:37.287Z,12.48
2022-10-11T01:12:12.418Z,13.07
2022-10-11T01:14:47.297Z,9.57
2022-10-11T01:17:23.654Z,10.55
2022-10-11T01:20:08.792Z,10.13
2022-10-11T01:22:54.886Z,10.65
2022-10-11T01:25:28.203Z,10.75
2022-10-11T01:28:10.319Z,10.63
2022-10-11T01:30:38.939Z,13.43
2022-10-11T01:33:06.403Z,11.27
2022-10-11T01:35:43.681Z,11.57
2022-10-11T01:38:20.614Z,9.60
2022-10-11T01:40:57.777Z,9.70
2022-10-11T01:43:26.482Z,14.43
2022-10-11T01:45:57.085Z,15.57
2022-10-11T01:48:25.072Z,11.88
2022-10-11T01:50:57.251Z,13.52
2022-10-11T01:53:39.635Z,16.45
2022-10-11T01:56:09.511Z,14.63
2022-10-11T01:59:16.483Z,12.82
2022-10-11T02:02:03.879Z,13.30
2022-10-11T02:04:38.921Z,17.90
2022-10-11T02:07:24.381Z,13.18
2022-10-11T02:10:05.868Z,14.98
2022-10-11T02:12:39.838Z,12.32
2022-10-11T02:15:11.145Z,17.63
2022-10-11T02:17:44.905Z,15.95
2022-10-11T02:20:16.510Z,15.73
2022-10-11T02:22:47.582Z,14.70
2022-10-11T02:25:20.190Z,14.43
2022-10-11T02:27:48.958Z,11.00
2022-10-11T02:30:16.598Z,14.55
2022-10-11T02:32:46.604Z,19.30
2022-10-11T02:35:14.179Z,16.05
2022-10-11T02:38:10.457Z,15.43
2022-10-11T02:40:42.109Z,15.00
2022-10-11T02:43:18.310Z,13.70
2022-10-11T02:45:51.132Z,16.52
2022-10-11T02:48:19.157Z,13.70
2022-10-11T02:50:46.710Z,11.25
2022-10-11T02:53:13.699Z,10.85
2022-10-11T02:55:40.767Z,14.15
2022-10-11T02:58:08.757Z,11.60
2022-10-11T03:00:36.998Z,16.42
2022-10-11T03:03:04.346Z,12.18
2022-10-11T03:05:32.723Z,14.32
2022-10-11T03:07:59.836Z,12.25
2022-10-11T03:10:26.946Z,12.23
2022-10-11T03:12:53.927Z,13.40
2022-10-11T03:15:21.738Z,14.68
2022-10-11T03:17:49.352Z,14.13
2022-10-11T03:20:16.825Z,16.00
2022-10-11T03:22:44.589Z,14.95
2022-10-11T03:25:11.968Z,13.02
2022-10-11T03:27:39.127Z,10.38
2022-10-11T03:30:09.119Z,14.85
2022-10-11T03:35:03.876Z,13.52
2022-10-11T03:37:31.033Z,17.48
2022-10-11T03:39:58.059Z,14.88
2022-10-11T03:42:25.063Z,18.30
2022-10-11T03:44:52.135Z,19.05
2022-10-11T03:47:19.171Z,14.05
2022-10-11T03:49:46.139Z,16.15
2022-10-11T03:52:13.344Z,17.90
2022-10-11T03:54:40.451Z,21.70
2022-10-11T03:57:07.347Z,18.52
2022-10-11T03:59:34.489Z,14.23
2022-10-11T04:02:02.100Z,18.00
2022-10-11T04:04:29.695Z,20.90
2022-10-11T04:06:56.644Z,16.95
2022-10-11T04:09:23.625Z,20.77
2022-10-11T04:11:50.589Z,17.05
2022-10-11T04:14:17.670Z,12.85
2022-10-11T04:16:44.627Z,13.25
2022-10-11T04:19:11.575Z,17.65
2022-10-11T04:21:38.688Z,22.13
2022-10-11T04:24:06.223Z,14.73
2022-10-11T04:26:33.363Z,16.20
2022-10-11T04:29:00.513Z,17.65
2022-10-11T04:31:27.412Z,13.60
2022-10-11T04:33:54.447Z,15.18
2022-10-11T04:36:21.500Z,19.95
2022-10-11T04:38:48.684Z,13.05
2022-10-11T04:41:16.580Z,13.80
2022-10-11T04:43:43.954Z,16.42
2022-10-11T04:46:11.616Z,16.88
2022-10-11T04:48:38.899Z,19.58
2022-10-11T04:51:06.059Z,19.45
2022-10-11T04:53:33.130Z,17.70
2022-10-11T04:56:03.544Z,18.98
2022-10-11T04:58:33.007Z,21.27
2022-10-11T05:01:00.815Z,14.48
2022-10-11T05:03:28.400Z,17.05
2022-10-11T05:05:55.753Z,21.98
2022-10-11T05:08:23.804Z,16.88
2022-10-11T05:11:05.929Z,16.40
2022-10-11T05:13:34.751Z,18.15
2022-10-11T05:16:08.231Z,19.48
2022-10-11T05:18:37.964Z,24.88
2022-10-11T05:21:14.409Z,20.48
2022-10-11T05:23:41.523Z,20.77
2022-10-11T05:26:08.979Z,18.15
2022-10-11T05:28:36.123Z,20.25
2022-10-11T05:31:03.338Z,25.67
2022-10-11T05:33:31.535Z,17.70
2022-10-11T05:35:58.550Z,19.38
2022-10-11T05:38:25.880Z,16.70
2022-10-11T05:40:53.502Z,18.33
2022-10-11T05:43:20.638Z,18.95
2022-10-11T05:45:48.333Z,22.42
2022-10-11T05:48:16.183Z,23.33
2022-10-11T05:50:43.839Z,16.60
2022-10-11T05:53:11.486Z,21.98
2022-10-11T05:55:40.198Z,20.13
2022-10-11T05:58:08.216Z,14.60
2022-10-11T06:00:38.549Z,16.60
2022-10-11T06:05:35.279Z,13.63
2022-10-11T06:08:03.839Z,21.38
2022-10-11T06:10:31.328Z,20.90
2022-10-11T06:12:59.608Z,16.30
2022-10-11T06:15:26.914Z,22.73
2022-10-11T06:17:54.444Z,14.25
2022-10-11T06:20:22.157Z,17.63
2022-10-11T06:22:49.244Z,16.75
2022-10-11T06:25:16.982Z,12.65
2022-10-11T06:27:44.042Z,16.83
2022-10-11T06:30:11.569Z,12.05
2022-10-11T06:32:38.656Z,13.48
2022-10-11T06:35:06.281Z,14.75
2022-10-11T06:37:33.366Z,14.50
2022-10-11T06:40:00.697Z,12.50
2022-10-11T06:42:27.969Z,11.57
2022-10-11T06:44:55.107Z,10.23
2022-10-11T06:47:22.003Z,13.07
2022-10-11T06:49:49.223Z,12.20
2022-10-11T06:52:16.254Z,10.95
2022-10-11T06:54:45.074Z,10.32
2022-10-11T06:57:12.323Z,7.38
2022-10-11T06:59:39.383Z,11.68
2022-10-11T07:02:06.936Z,7.40
2022-10-11T07:04:34.204Z,7.82
2022-10-11T07:07:01.680Z,4.70
2022-10-11T07:09:28.607Z,6.28
2022-10-11T07:11:55.957Z,10.73
2022-10-11T07:14:23.291Z,11.63
2022-10-11T07:16:50.244Z,3.78
2022-10-11T07:19:17.229Z,4.22
2022-10-11T07:21:44.263Z,6.07
2022-10-11T07:24:12.062Z,7.07
2022-10-11T07:26:39.515Z,8.52
2022-10-11T07:29:08.568Z,3.38
2022-10-11T07:31:37.961Z,5.80
2022-10-11T07:34:05.652Z,13.93
2022-10-11T07:36:32.891Z,3.40
2022-10-11T07:39:00.376Z,5.82
2022-10-11T07:41:27.467Z,7.88
2022-10-11T07:43:55.161Z,4.50
2022-10-11T07:46:22.523Z,3.60
2022-10-11T07:48:53.015Z,7.07
2022-10-11T07:51:22.709Z,3.85
2022-10-11T07:53:52.437Z,4.10
2022-10-11T07:56:22.064Z,2.60
2022-10-11T07:59:00.639Z,3.30
2022-10-11T08:01:28.576Z,4.03
2022-10-11T08:03:57.141Z,3.55
2022-10-11T08:06:29.437Z,2.83
2022-10-11T08:08:57.956Z,5.88
2022-10-11T08:11:36.565Z,6.40
2022-10-11T08:14:08.982Z,4.90
2022-10-11T08:16:38.216Z,7.35
2022-10-11T08:19:07.296Z,5.68
2022-10-11T08:21:35.126Z,3.17
2022-10-11T08:24:04.202Z,3.58
2022-10-11T08:26:32.866Z,6.00
2022-10-11T08:29:05.431Z,5.85
2022-10-11T08:31:34.260Z,5.68
2022-10-11T08:34:01.287Z,3.90
2022-10-11T08:36:28.580Z,3.83
2022-10-11T08:38:55.775Z,4.25
2022-10-11T08:41:57.878Z,8.65
2022-10-11T08:44:58.719Z,5.38
2022-10-11T08:47:30.834Z,4.47
2022-10-11T08:49:59.787Z,10.18
2022-10-11T08:52:45.453Z,4.22
2022-10-11T08:55:21.506Z,5.68
2022-10-11T08:57:56.070Z,6.20
2022-10-11T09:00:24.583Z,6.55
2022-10-11T09:03:09.362Z,4.80
2022-10-11T09:06:05.312Z,3.60
2022-10-11T09:09:03.796Z,8.20
2022-10-11T09:11:48.559Z,2.97
2022-10-11T09:14:39.577Z,3.30
2022-10-11T09:17:41.404Z,7.25
2022-10-11T09:20:36.350Z,3.13
2022-10-11T09:23:25.424Z,8.45
2022-10-11T09:25:58.766Z,4.05
2022-10-11T09:28:34.589Z,3.42
2022-10-11T09:31:01.854Z,3.53
2022-10-11T09:34:01.180Z,6.70
2022-10-11T09:37:00.213Z,3.30
2022-10-11T09:39:54.060Z,6.60
2022-10-11T09:42:21.213Z,3.92
2022-10-11T09:44:48.602Z,6.40
2022-10-11T09:47:27.309Z,3.50
2022-10-11T09:50:00.871Z,3.78
2022-10-11T09:52:27.856Z,5.07
2022-10-11T09:54:58.179Z,5.30
2022-10-11T09:57:26.468Z,5.15
2022-10-11T10:00:05.787Z,14.55
2022-10-11T10:02:49.014Z,5.20
2022-10-11T10:05:31.175Z,8.70
2022-10-11T10:08:22.718Z,6.20
2022-10-11T10:10:59.718Z,9.65
2022-10-11T10:13:39.436Z,5.30
2022-10-11T10:16:11.818Z,2.95
2022-10-11T10:18:52.801Z,7.22
2022-10-11T10:21:27.911Z,3.67
2022-10-11T10:23:56.778Z,5.93
2022-10-11T10:26:27.551Z,3.90
2022-10-11T10:29:01.710Z,5.35
2022-10-11T10:31:32.814Z,5.50
2022-10-11T10:34:12.669Z,4.65
2022-10-11T10:36:46.635Z,14.00
2022-10-11T10:39:23.136Z,10.43
2022-10-11T10:41:50.287Z,5.45
2022-10-11T10:44:17.240Z,7.07
2022-10-11T10:47:09.092Z,7.65
2022-10-11T10:49:54.460Z,4.40
2022-10-11T10:52:49.915Z,9.88
2022-10-11T10:55:25.435Z,9.55
2022-10-11T10:58:24.766Z,3.22
2022-10-11T11:01:05.978Z,4.57
2022-10-11T11:03:52.567Z,7.90
2022-10-11T11:06:44.414Z,4.68
2022-10-11T11:09:33.134Z,10.02
2022-10-11T11:12:41.340Z,6.80
2022-10-11T11:15:31.418Z,8.45
2022-10-11T11:18:28.561Z,12.85
2022-10-11T11:21:13.090Z,20.15
2022-10-11T11:23:56.527Z,13.45
2022-10-11T11:27:01.040Z,7.93
2022-10-11T11:29:41.421Z,6.10
2022-10-11T11:32:54.097Z,28.83
2022-10-11T11:35:46.475Z,18.95
2022-10-11T11:38:33.973Z,7.07
2022-10-11T11:41:06.287Z,7.25
2022-10-11T11:43:59.524Z,10.45
2022-10-11T11:46:37.534Z,7.22
2022-10-11T11:49:16.847Z,6.70
2022-10-11T11:51:46.363Z,25.77
2022-10-11T11:54:19.650Z,8.10
2022-10-11T11:57:03.198Z,6.07
2022-10-11T11:59:44.184Z,6.53
2022-10-11T12:02:32.959Z,5.80
2022-10-11T12:05:00.696Z,6.20
2022-10-11T12:07:29.379Z,6.47
2022-10-11T12:10:50.065Z,3.40
2022-10-11T12:13:17.605Z,5.15
2022-10-11T12:15:59.326Z,6.68
2022-10-11T12:18:27.673Z,4.07
2022-10-11T12:21:26.901Z,3.17
2022-10-11T12:23:58.929Z,5.00
2022-10-11T12:26:28.661Z,7.47
2022-10-11T12:29:17.280Z,3.05
2022-10-11T12:32:11.180Z,4.65
2022-10-11T12:34:42.974Z,6.10
2022-10-11T12:37:22.679Z,6.00
2022-10-11T12:39:51.045Z,5.75
2022-10-11T12:42:27.750Z,4.28
2022-10-11T12:45:13.289Z,5.32
2022-10-11T12:47:53.158Z,5.45
2022-10-11T12:50:31.163Z,13.77
2022-10-11T12:53:03.645Z,11.90
2022-10-11T12:55:50.586Z,5.90
2022-10-11T12:58:38.736Z,10.93
2022-10-11T13:01:17.782Z,8.68
2022-10-11T13:03:53.288Z,12.95
2022-10-11T13:06:27.569Z,14.65
2022-10-11T13:09:24.951Z,10.30
2022-10-11T13:12:13.746Z,11.15
2022-10-11T13:15:08.589Z,9.60
2022-10-11T13:17:38.920Z,14.02
2022-10-11T13:20:28.947Z,22.65
2022-10-11T13:22:57.086Z,6.95
2022-10-11T13:25:27.502Z,6.22
2022-10-11T13:30:31.799Z,7.25
2022-10-11T13:33:00.708Z,8.82
2022-10-11T13:35:36.664Z,9.02
2022-10-11T13:38:08.052Z,13.43
2022-10-11T13:40:35.956Z,9.88
2022-10-11T13:43:05.930Z,10.32
2022-10-11T13:45:36.029Z,10.07
2022-10-11T13:50:35.426Z,9.32
2022-10-11T13:53:21.375Z,9.60
2022-10-11T13:56:12.508Z,9.65
2022-10-11T13:58:46.298Z,9.70
2022-10-11T14:01:44.051Z,11.70
2022-10-11T14:04:15.503Z,10.32
2022-10-11T14:06:51.576Z,8.88
2022-10-11T14:09:26.542Z,11.00
2022-10-11T14:11:54.644Z,11.43
2022-10-11T14:14:33.510Z,10.38
2022-10-11T14:17:14.872Z,7.22
2022-10-11T14:19:43.245Z,15.70
2022-10-11T14:22:17.151Z,35.13
2022-10-11T14:24:48.187Z,14.50
2022-10-11T14:27:19.432Z,17.42
2022-10-11T14:30:00.486Z,15.00
2022-10-11T14:32:34.507Z,15.70
2022-10-11T14:35:01.828Z,11.48
2022-10-11T14:37:30.391Z,12.48
2022-10-11T14:39:57.325Z,15.70
2022-10-11T14:42:24.517Z,17.70
2022-10-11T14:44:51.784Z,10.43
2022-10-11T14:47:18.761Z,17.50
2022-10-11T14:49:45.818Z,23.55
2022-10-11T14:52:13.872Z,24.65
2022-10-11T14:54:41.757Z,20.33
2022-10-11T14:57:11.954Z,17.55
2022-10-11T14:59:39.103Z,22.27
2022-10-11T15:02:07.771Z,17.35
2022-10-11T15:04:35.004Z,20.10
2022-10-11T15:07:06.261Z,28.85
2022-10-11T15:09:33.576Z,31.33
2022-10-11T15:12:00.622Z,22.35
2022-10-11T15:14:27.551Z,19.35
2022-10-11T15:16:56.252Z,24.50
2022-10-11T15:19:25.351Z,26.50
2022-10-11T15:21:52.447Z,20.35
2022-10-11T15:24:22.658Z,23.40
2022-10-11T15:26:49.908Z,33.63
2022-10-11T15:29:21.972Z,12.02
2022-10-11T15:31:49.635Z,27.13
2022-10-11T15:34:17.566Z,22.75
2022-10-11T15:36:44.551Z,19.60
2022-10-11T15:39:25.757Z,25.60
2022-10-11T15:41:53.014Z,18.60
2022-10-11T15:44:20.053Z,15.90
2022-10-11T15:46:47.072Z,28.23
2022-10-11T15:49:14.793Z,23.55
2022-10-11T15:51:41.970Z,32.17
2022-10-11T15:54:08.997Z,24.33
2022-10-11T15:56:35.999Z,23.00
2022-10-11T15:59:03.167Z,22.50
2022-10-11T16:01:30.234Z,28.88
2022-10-11T16:03:57.301Z,21.05
2022-10-11T16:06:24.352Z,23.27
2022-10-11T16:08:51.365Z,25.80
2022-10-11T16:11:18.357Z,27.38
2022-10-11T16:13:45.502Z,25.13
2022-10-11T16:16:12.607Z,54.13
2022-10-11T16:18:40.483Z,32.05
2022-10-11T16:21:15.685Z,28.90
2022-10-11T16:23:43.184Z,30.80
2022-10-11T16:26:14.024Z,23.83
2022-10-11T16:28:42.125Z,28.67
2022-10-11T16:31:11.430Z,35.17
2022-10-11T16:33:45.883Z,33.30
2022-10-11T16:36:40.751Z,24.05
2022-10-11T16:39:12.825Z,21.50
2022-10-11T16:41:40.959Z,27.20
2022-10-11T16:44:11.991Z,19.40
2022-10-11T16:46:39.905Z,25.85
2022-10-11T16:49:07.086Z,22.83
2022-10-11T16:51:34.194Z,26.48
2022-10-11T16:54:01.552Z,20.67
2022-10-11T16:56:28.674Z,20.13
2022-10-11T16:58:56.336Z,20.73
2022-10-11T17:01:24.079Z,26.63
2022-10-11T17:03:54.544Z,27.08
2022-10-11T17:06:26.009Z,17.20
2022-10-11T17:09:00.087Z,27.92
2022-10-11T17:11:29.777Z,35.63
2022-10-11T17:13:58.792Z,21.35
2022-10-11T17:16:26.795Z,19.83
2022-10-11T17:18:55.099Z,20.35
2022-10-11T17:21:22.990Z,33.35
2022-10-11T17:23:51.607Z,23.42
2022-10-11T17:26:26.353Z,15.30
2022-10-11T17:28:56.673Z,13.73
2022-10-11T17:31:25.416Z,16.80
2022-10-11T17:33:54.450Z,18.13
2022-10-11T17:36:34.726Z,19.48
2022-10-11T17:39:05.825Z,19.00
2022-10-11T17:41:33.346Z,12.23
2022-10-11T17:44:03.050Z,16.48
2022-10-11T17:46:33.674Z,22.97
2022-10-11T17:49:04.986Z,16.95
2022-10-11T17:51:33.152Z,17.88
2022-10-11T17:54:00.344Z,20.90
2022-10-11T17:56:32.383Z,25.05
2022-10-11T17:59:02.278Z,21.50
2022-10-11T18:01:29.946Z,24.65
2022-10-11T18:03:59.994Z,23.95
2022-10-11T18:06:30.237Z,22.73
2022-10-11T18:11:28.907Z,17.35
2022-10-11T18:14:01.649Z,15.27
2022-10-11T18:16:33.146Z,19.65
2022-10-11T18:19:03.281Z,21.23
2022-10-11T18:21:34.402Z,23.83
2022-10-11T18:24:05.860Z,21.13
2022-10-11T18:26:33.209Z,19.95
2022-10-11T18:29:02.083Z,24.00
2022-10-11T18:31:35.400Z,17.73
2022-10-11T18:34:05.660Z,18.52
2022-10-11T18:36:33.044Z,26.70
2022-10-11T18:39:06.781Z,19.17
2022-10-11T18:41:34.263Z,28.75
2022-10-11T18:44:05.054Z,17.65
2022-10-11T18:46:33.552Z,18.77
2022-10-11T18:49:02.334Z,18.25
2022-10-11T18:51:35.230Z,17.33
2022-10-11T18:54:04.478Z,20.23
2022-10-11T18:56:38.831Z,16.35
2022-10-11T18:59:06.754Z,20.00
2022-10-11T19:01:38.500Z,18.52
2022-10-11T19:04:08.618Z,22.42
2022-10-11T19:06:42.811Z,12.60
2022-10-11T19:09:13.484Z,17.90
2022-10-11T19:11:41.509Z,15.77
2022-10-11T19:14:11.633Z,22.90
2022-10-11T19:16:42.366Z,15.52
2022-10-11T19:19:12.288Z,19.88
2022-10-11T19:21:40.839Z,16.05
2022-10-11T19:24:08.764Z,22.85
2022-10-11T19:26:41.441Z,16.85
2022-10-11T19:29:15.072Z,18.60
2022-10-11T19:31:48.707Z,16.85
2022-10-11T19:34:16.633Z,18.70
2022-10-11T19:36:45.031Z,18.88
2022-10-11T19:39:14.223Z,20.45
2022-10-11T19:41:42.691Z,20.40
2022-10-11T19:44:11.102Z,26.30
2022-10-11T19:46:50.849Z,21.48
2022-10-11T19:49:21.684Z,17.63
2022-10-11T19:51:48.916Z,24.08
2022-10-11T19:54:16.329Z,20.08
2022-10-11T19:56:44.770Z,26.45
2022-10-11T19:59:12.878Z,20.70
2022-10-11T20:01:41.431Z,21.92
2022-10-11T20:04:27.421Z,23.40
2022-10-11T20:06:54.951Z,23.27
2022-10-11T20:09:29.613Z,22.08
2022-10-11T20:11:57.822Z,21.55
2022-10-11T20:14:25.578Z,21.80
2022-10-11T20:16:53.481Z,21.92
2022-10-11T20:19:26.192Z,20.33
2022-10-11T20:21:55.214Z,29.92
2022-10-11T20:24:23.025Z,39.92
2022-10-11T20:26:51.939Z,30.13
2022-10-11T20:29:19.967Z,34.03
2022-10-11T20:31:47.565Z,34.80
2022-10-11T20:34:14.954Z,112.47
2022-10-11T20:36:44.679Z,46.58
2022-10-11T20:39:15.403Z,42.00
2022-10-11T20:41:43.413Z,41.83
2022-10-11T20:44:13.266Z,31.48
2022-10-11T20:46:40.463Z,40.28
2022-10-11T20:49:09.905Z,29.30
2022-10-11T20:51:39.591Z,35.60
2022-10-11T20:54:08.142Z,34.80
2022-10-11T20:56:36.645Z,39.10
2022-10-11T20:59:05.312Z,38.65
2022-10-11T21:01:37.989Z,38.42
2022-10-11T21:04:07.167Z,33.20
2022-10-11T21:06:34.695Z,34.10
2022-10-11T21:09:02.596Z,30.17
2022-10-11T21:11:33.554Z,25.02
2022-10-11T21:14:03.963Z,30.17
2022-10-11T21:16:31.340Z,34.28
2022-10-11T21:19:00.122Z,41.65
2022-10-11T21:21:28.330Z,40.10
2022-10-11T21:24:00.454Z,45.58
2022-10-11T21:26:28.834Z,27.80
2022-10-11T21:28:56.312Z,30.00
2022-10-11T21:31:24.532Z,34.97
2022-10-11T21:33:52.203Z,26.80
2022-10-11T21:36:23.365Z,34.75
2022-10-11T21:38:51.299Z,31.08
2022-10-11T21:41:21.067Z,21.15
2022-10-11T21:43:48.897Z,25.73
2022-10-11T21:46:21.470Z,33.97
2022-10-11T21:48:51.913Z,26.17
2022-10-11T21:53:55.876Z,21.73
2022-10-11T21:56:24.079Z,24.88
2022-10-11T21:58:51.401Z,23.85
2022-10-11T22:01:20.148Z,36.80
2022-10-11T22:03:47.668Z,48.30
2022-10-11T22:06:15.457Z,44.55
2022-10-11T22:08:42.751Z,38.17
2022-10-11T22:11:09.864Z,49.78
2022-10-11T22:13:37.806Z,40.47
2022-10-11T22:16:09.975Z,44.22
2022-10-11T22:18:37.801Z,54.05
2022-10-11T22:21:06.934Z,47.05
2022-10-11T22:23:34.825Z,46.28
2022-10-11T22:26:06.767Z,36.25
2022-10-11T22:28:34.372Z,39.42
2022-10-11T22:31:02.134Z,43.22
2022-10-11T22:33:29.155Z,41.47
2022-10-11T22:35:58.020Z,42.85
2022-10-11T22:38:26.360Z,43.75
2022-10-11T22:40:53.578Z,40.33
2022-10-11T22:43:21.178Z,40.47
2022-10-11T22:45:48.268Z,56.30
2022-10-11T22:48:15.797Z,65.80
2022-10-11T22:50:43.021Z,80.22
2022-10-11T22:53:10.174Z,71.93
2022-10-11T22:55:37.198Z,64.32
2022-10-11T22:58:04.323Z,68.88
2022-10-11T23:00:31.818Z,55.72
2022-10-11T23:02:59.246Z,50.80
2022-10-11T23:05:26.367Z,30.45
2022-10-11T23:07:53.366Z,50.63
2022-10-11T23:10:20.511Z,46.67
2022-10-11T23:12:47.546Z,42.58
2022-10-11T23:15:15.448Z,30.48
2022-10-11T23:17:42.615Z,29.65
2022-10-11T23:20:10.857Z,47.83
2022-10-11T23:22:37.880Z,31.92
2022-10-11T23:25:05.636Z,51.15
2022-10-11T23:27:32.690Z,47.13
2022-10-11T23:29:59.678Z,53.22
2022-10-11T23:32:26.650Z,48.17
2022-10-11T23:34:53.681Z,48.42
2022-10-11T23:37:21.148Z,58.78
2022-10-11T23:39:48.482Z,74.78
2022-10-11T23:42:15.476Z,61.83
2022-10-11T23:44:42.447Z,64.32
2022-10-11T23:47:09.528Z,65.30
2022-10-11T23:49:36.866Z,79.57
2022-10-11T23:52:04.838Z,58.22
2022-10-11T23:54:31.767Z,61.42
2022-10-11T23:56:58.690Z,63.45
2022-10-11T23:59:25.873Z,58.80
